sensor_id;sensor_type;location;lat;lon;timestamp;P1;durP1;ratioP1;P2;durP2;ratioP2
59876;SDS011;45749;51.140;17.184;2022-10-31T00:01:30;29.32;;;22.15;;
59876;SDS011;45749;51.140;17.184;2022-10-31T00:03:48;30.95;;;22.27;;
59876;SDS011;45749;51.140;17.184;2022-10-31T00:06:14;27.17;;;22.13;;
59876;SDS011;45749;51.140;17.184;2022-10-31T00:08:43;28.38;;;23.35;;
59876;SDS011;45749;51.140;17.184;2022-10-31T00:11:20;32.55;;;22.60;;
59876;SDS011;45749;51.140;17.184;2022-10-31T00:13:46;31.95;;;23.92;;
59876;SDS011;45749;51.140;17.184;2022-10-31T00:16:13;28.50;;;23.15;;
59876;SDS011;45749;51.140;17.184;2022-10-31T00:18:49;29.55;;;23.05;;
59876;SDS011;45749;51.140;17.184;2022-10-31T00:21:21;29.90;;;21.73;;
59876;SDS011;45749;51.140;17.184;2022-10-31T00:23:48;27.93;;;22.73;;
59876;SDS011;45749;51.140;17.184;2022-10-31T00:26:15;33.08;;;24.00;;
59876;SDS011;45749;51.140;17.184;2022-10-31T00:28:41;29.32;;;22.25;;
59876;SDS011;45749;51.140;17.184;2022-10-31T00:31:08;26.50;;;22.13;;
59876;SDS011;45749;51.140;17.184;2022-10-31T00:33:36;28.23;;;23.30;;
59876;SDS011;45749;51.140;17.184;2022-10-31T00:36:04;28.55;;;22.67;;
59876;SDS011;45749;51.140;17.184;2022-10-31T00:38:32;30.77;;;23.15;;
59876;SDS011;45749;51.140;17.184;2022-10-31T00:40:58;34.65;;;25.92;;
59876;SDS011;45749;51.140;17.184;2022-10-31T00:43:24;31.25;;;24.77;;
59876;SDS011;45749;51.140;17.184;2022-10-31T00:45:50;33.63;;;25.45;;
59876;SDS011;45749;51.140;17.184;2022-10-31T00:48:16;33.95;;;25.77;;
59876;SDS011;45749;51.140;17.184;2022-10-31T00:50:42;28.20;;;23.05;;
59876;SDS011;45749;51.140;17.184;2022-10-31T00:53:08;34.88;;;25.72;;
59876;SDS011;45749;51.140;17.184;2022-10-31T00:55:34;31.95;;;26.00;;
59876;SDS011;45749;51.140;17.184;2022-10-31T00:58:00;30.15;;;24.18;;
59876;SDS011;45749;51.140;17.184;2022-10-31T01:00:26;30.85;;;24.65;;
59876;SDS011;45749;51.140;17.184;2022-10-31T01:02:52;27.58;;;23.12;;
59876;SDS011;45749;51.140;17.184;2022-10-31T01:05:18;30.62;;;23.95;;
59876;SDS011;45749;51.140;17.184;2022-10-31T01:07:44;35.15;;;24.23;;
59876;SDS011;45749;51.140;17.184;2022-10-31T01:10:11;30.20;;;24.23;;
59876;SDS011;45749;51.140;17.184;2022-10-31T01:12:40;37.33;;;23.90;;
59876;SDS011;45749;51.140;17.184;2022-10-31T01:15:10;32.38;;;24.65;;
59876;SDS011;45749;51.140;17.184;2022-10-31T01:17:38;30.37;;;23.67;;
59876;SDS011;45749;51.140;17.184;2022-10-31T01:20:05;28.23;;;22.77;;
59876;SDS011;45749;51.140;17.184;2022-10-31T01:22:33;31.02;;;23.42;;
59876;SDS011;45749;51.140;17.184;2022-10-31T01:24:59;29.87;;;23.35;;
59876;SDS011;45749;51.140;17.184;2022-10-31T01:27:25;27.87;;;21.73;;
59876;SDS011;45749;51.140;17.184;2022-10-31T01:29:51;24.90;;;20.25;;
59876;SDS011;45749;51.140;17.184;2022-10-31T01:32:17;28.15;;;22.65;;
59876;SDS011;45749;51.140;17.184;2022-10-31T01:34:43;25.20;;;21.12;;
59876;SDS011;45749;51.140;17.184;2022-10-31T01:37:09;27.93;;;22.70;;
59876;SDS011;45749;51.140;17.184;2022-10-31T01:39:35;28.87;;;21.62;;
59876;SDS011;45749;51.140;17.184;2022-10-31T01:42:01;28.98;;;22.07;;
59876;SDS011;45749;51.140;17.184;2022-10-31T01:47:06;25.32;;;20.62;;
59876;SDS011;45749;51.140;17.184;2022-10-31T01:49:54;27.32;;;19.77;;
59876;SDS011;45749;51.140;17.184;2022-10-31T01:52:44;26.45;;;20.80;;
59876;SDS011;45749;51.140;17.184;2022-10-31T01:55:00;24.40;;;19.75;;
59876;SDS011;45749;51.140;17.184;2022-10-31T01:57:33;26.73;;;20.88;;
59876;SDS011;45749;51.140;17.184;2022-10-31T02:00:02;23.10;;;19.45;;
59876;SDS011;45749;51.140;17.184;2022-10-31T02:02:31;24.75;;;21.60;;
59876;SDS011;45749;51.140;17.184;2022-10-31T02:04:58;21.90;;;18.55;;
59876;SDS011;45749;51.140;17.184;2022-10-31T02:07:30;23.22;;;20.25;;
59876;SDS011;45749;51.140;17.184;2022-10-31T02:10:01;28.70;;;20.25;;
59876;SDS011;45749;51.140;17.184;2022-10-31T02:12:29;24.25;;;19.07;;
59876;SDS011;45749;51.140;17.184;2022-10-31T02:14:57;25.95;;;19.45;;
59876;SDS011;45749;51.140;17.184;2022-10-31T02:17:25;24.63;;;20.75;;
59876;SDS011;45749;51.140;17.184;2022-10-31T02:22:45;25.88;;;19.77;;
59876;SDS011;45749;51.140;17.184;2022-10-31T02:35:10;28.60;;;20.70;;
59876;SDS011;45749;51.140;17.184;2022-10-31T02:40:28;23.15;;;17.82;;
59876;SDS011;45749;51.140;17.184;2022-10-31T02:45:53;21.15;;;16.82;;
59876;SDS011;45749;51.140;17.184;2022-10-31T02:48:34;24.43;;;18.90;;
59876;SDS011;45749;51.140;17.184;2022-10-31T02:51:03;23.15;;;17.35;;
59876;SDS011;45749;51.140;17.184;2022-10-31T02:53:33;21.07;;;16.95;;
59876;SDS011;45749;51.140;17.184;2022-10-31T02:56:05;21.20;;;17.65;;
59876;SDS011;45749;51.140;17.184;2022-10-31T03:12:25;25.85;;;18.57;;
59876;SDS011;45749;51.140;17.184;2022-10-31T03:20:20;29.07;;;18.95;;
59876;SDS011;45749;51.140;17.184;2022-10-31T03:22:50;27.58;;;19.15;;
59876;SDS011;45749;51.140;17.184;2022-10-31T03:25:18;20.82;;;16.65;;
59876;SDS011;45749;51.140;17.184;2022-10-31T03:27:44;23.83;;;16.93;;
59876;SDS011;45749;51.140;17.184;2022-10-31T03:30:12;25.75;;;18.52;;
59876;SDS011;45749;51.140;17.184;2022-10-31T03:32:49;22.45;;;17.42;;
59876;SDS011;45749;51.140;17.184;2022-10-31T03:35:19;22.98;;;17.15;;
59876;SDS011;45749;51.140;17.184;2022-10-31T03:37:49;20.48;;;17.70;;
59876;SDS011;45749;51.140;17.184;2022-10-31T03:40:18;21.37;;;16.12;;
59876;SDS011;45749;51.140;17.184;2022-10-31T03:42:50;20.62;;;15.28;;
59876;SDS011;45749;51.140;17.184;2022-10-31T03:45:20;21.20;;;17.12;;
59876;SDS011;45749;51.140;17.184;2022-10-31T03:47:52;22.95;;;16.17;;
59876;SDS011;45749;51.140;17.184;2022-10-31T03:50:20;18.48;;;14.60;;
59876;SDS011;45749;51.140;17.184;2022-10-31T03:53:04;17.70;;;15.68;;
59876;SDS011;45749;51.140;17.184;2022-10-31T03:55:43;24.75;;;15.80;;
59876;SDS011;45749;51.140;17.184;2022-10-31T03:58:20;20.62;;;15.68;;
59876;SDS011;45749;51.140;17.184;2022-10-31T04:00:52;18.15;;;15.40;;
59876;SDS011;45749;51.140;17.184;2022-10-31T04:03:22;19.00;;;14.90;;
59876;SDS011;45749;51.140;17.184;2022-10-31T04:05:52;22.98;;;15.23;;
59876;SDS011;45749;51.140;17.184;2022-10-31T04:08:21;18.67;;;14.00;;
59876;SDS011;45749;51.140;17.184;2022-10-31T04:10:54;17.25;;;14.45;;
59876;SDS011;45749;51.140;17.184;2022-10-31T04:13:24;17.82;;;14.65;;
59876;SDS011;45749;51.140;17.184;2022-10-31T04:15:53;20.10;;;15.30;;
59876;SDS011;45749;51.140;17.184;2022-10-31T04:18:24;18.70;;;15.53;;
59876;SDS011;45749;51.140;17.184;2022-10-31T04:20:59;19.57;;;14.98;;
59876;SDS011;45749;51.140;17.184;2022-10-31T04:23:28;18.52;;;15.38;;
59876;SDS011;45749;51.140;17.184;2022-10-31T04:25:55;16.67;;;13.95;;
59876;SDS011;45749;51.140;17.184;2022-10-31T04:28:21;18.42;;;14.28;;
59876;SDS011;45749;51.140;17.184;2022-10-31T04:30:47;19.60;;;15.53;;
59876;SDS011;45749;51.140;17.184;2022-10-31T04:33:14;18.92;;;15.00;;
59876;SDS011;45749;51.140;17.184;2022-10-31T04:35:40;16.52;;;13.90;;
59876;SDS011;45749;51.140;17.184;2022-10-31T04:38:06;20.27;;;16.27;;
59876;SDS011;45749;51.140;17.184;2022-10-31T04:40:32;21.52;;;16.65;;
59876;SDS011;45749;51.140;17.184;2022-10-31T04:42:58;20.82;;;16.50;;
59876;SDS011;45749;51.140;17.184;2022-10-31T04:45:24;19.75;;;15.75;;
59876;SDS011;45749;51.140;17.184;2022-10-31T04:47:50;20.90;;;17.48;;
59876;SDS011;45749;51.140;17.184;2022-10-31T04:50:16;18.95;;;16.35;;
59876;SDS011;45749;51.140;17.184;2022-10-31T04:52:42;21.60;;;16.00;;
59876;SDS011;45749;51.140;17.184;2022-10-31T04:55:10;20.77;;;16.15;;
59876;SDS011;45749;51.140;17.184;2022-10-31T04:57:41;22.17;;;16.87;;
59876;SDS011;45749;51.140;17.184;2022-10-31T05:00:09;25.57;;;16.32;;
59876;SDS011;45749;51.140;17.184;2022-10-31T05:02:44;20.77;;;16.00;;
59876;SDS011;45749;51.140;17.184;2022-10-31T05:05:14;20.25;;;15.78;;
59876;SDS011;45749;51.140;17.184;2022-10-31T05:07:41;21.95;;;15.68;;
59876;SDS011;45749;51.140;17.184;2022-10-31T05:10:09;18.98;;;14.65;;
59876;SDS011;45749;51.140;17.184;2022-10-31T05:12:45;18.15;;;14.45;;
59876;SDS011;45749;51.140;17.184;2022-10-31T05:15:14;16.10;;;14.10;;
59876;SDS011;45749;51.140;17.184;2022-10-31T05:17:42;18.92;;;14.33;;
59876;SDS011;45749;51.140;17.184;2022-10-31T05:20:09;17.73;;;14.50;;
59876;SDS011;45749;51.140;17.184;2022-10-31T05:22:36;18.10;;;13.85;;
59876;SDS011;45749;51.140;17.184;2022-10-31T05:25:02;20.62;;;14.65;;
59876;SDS011;45749;51.140;17.184;2022-10-31T05:27:29;15.93;;;12.80;;
59876;SDS011;45749;51.140;17.184;2022-10-31T05:29:55;17.98;;;13.22;;
59876;SDS011;45749;51.140;17.184;2022-10-31T05:32:20;18.67;;;12.70;;
59876;SDS011;45749;51.140;17.184;2022-10-31T05:34:46;17.73;;;13.48;;
59876;SDS011;45749;51.140;17.184;2022-10-31T05:37:12;19.35;;;12.90;;
59876;SDS011;45749;51.140;17.184;2022-10-31T05:39:38;18.00;;;13.90;;
59876;SDS011;45749;51.140;17.184;2022-10-31T05:42:04;18.12;;;14.50;;
59876;SDS011;45749;51.140;17.184;2022-10-31T05:44:30;18.40;;;13.85;;
59876;SDS011;45749;51.140;17.184;2022-10-31T05:46:56;23.30;;;15.10;;
59876;SDS011;45749;51.140;17.184;2022-10-31T05:49:22;20.25;;;14.35;;
59876;SDS011;45749;51.140;17.184;2022-10-31T05:51:48;19.70;;;13.85;;
59876;SDS011;45749;51.140;17.184;2022-10-31T05:54:14;21.45;;;14.18;;
59876;SDS011;45749;51.140;17.184;2022-10-31T05:56:40;17.80;;;13.75;;
59876;SDS011;45749;51.140;17.184;2022-10-31T05:59:06;24.20;;;14.98;;
59876;SDS011;45749;51.140;17.184;2022-10-31T06:01:32;18.67;;;13.05;;
59876;SDS011;45749;51.140;17.184;2022-10-31T06:03:58;18.90;;;13.75;;
59876;SDS011;45749;51.140;17.184;2022-10-31T06:06:23;21.10;;;13.88;;
59876;SDS011;45749;51.140;17.184;2022-10-31T06:08:49;21.55;;;14.05;;
59876;SDS011;45749;51.140;17.184;2022-10-31T06:11:15;24.87;;;15.70;;
59876;SDS011;45749;51.140;17.184;2022-10-31T06:13:41;22.00;;;15.93;;
59876;SDS011;45749;51.140;17.184;2022-10-31T06:16:07;24.57;;;16.55;;
59876;SDS011;45749;51.140;17.184;2022-10-31T06:18:33;21.27;;;14.85;;
59876;SDS011;45749;51.140;17.184;2022-10-31T06:20:59;23.25;;;14.68;;
59876;SDS011;45749;51.140;17.184;2022-10-31T06:23:25;24.77;;;14.40;;
59876;SDS011;45749;51.140;17.184;2022-10-31T06:25:50;22.98;;;14.83;;
59876;SDS011;45749;51.140;17.184;2022-10-31T06:28:16;19.95;;;15.78;;
59876;SDS011;45749;51.140;17.184;2022-10-31T06:30:42;22.62;;;14.47;;
59876;SDS011;45749;51.140;17.184;2022-10-31T06:33:08;23.42;;;14.47;;
59876;SDS011;45749;51.140;17.184;2022-10-31T06:35:34;20.80;;;13.30;;
59876;SDS011;45749;51.140;17.184;2022-10-31T06:38:00;22.50;;;15.95;;
59876;SDS011;45749;51.140;17.184;2022-10-31T06:40:26;22.48;;;14.00;;
59876;SDS011;45749;51.140;17.184;2022-10-31T06:42:58;21.25;;;14.38;;
59876;SDS011;45749;51.140;17.184;2022-10-31T06:45:26;17.92;;;13.32;;
59876;SDS011;45749;51.140;17.184;2022-10-31T06:47:53;22.70;;;14.38;;
59876;SDS011;45749;51.140;17.184;2022-10-31T06:50:20;21.75;;;14.83;;
59876;SDS011;45749;51.140;17.184;2022-10-31T06:52:58;20.35;;;13.32;;
59876;SDS011;45749;51.140;17.184;2022-10-31T06:55:23;23.38;;;13.38;;
59876;SDS011;45749;51.140;17.184;2022-10-31T06:57:54;29.37;;;14.05;;
59876;SDS011;45749;51.140;17.184;2022-10-31T07:00:23;24.90;;;14.60;;
59876;SDS011;45749;51.140;17.184;2022-10-31T07:05:26;21.37;;;15.68;;
59876;SDS011;45749;51.140;17.184;2022-10-31T07:07:54;29.70;;;17.92;;
59876;SDS011;45749;51.140;17.184;2022-10-31T07:10:23;34.65;;;23.12;;
59876;SDS011;45749;51.140;17.184;2022-10-31T07:12:57;28.62;;;18.12;;
59876;SDS011;45749;51.140;17.184;2022-10-31T07:15:25;26.57;;;17.92;;
59876;SDS011;45749;51.140;17.184;2022-10-31T07:17:52;29.60;;;17.20;;
59876;SDS011;45749;51.140;17.184;2022-10-31T07:20:18;24.12;;;15.83;;
59876;SDS011;45749;51.140;17.184;2022-10-31T07:22:45;24.43;;;15.18;;
59876;SDS011;45749;51.140;17.184;2022-10-31T07:25:11;27.20;;;14.87;;
59876;SDS011;45749;51.140;17.184;2022-10-31T07:27:37;19.07;;;13.25;;
59876;SDS011;45749;51.140;17.184;2022-10-31T07:30:05;30.08;;;14.20;;
59876;SDS011;45749;51.140;17.184;2022-10-31T07:32:38;20.75;;;12.28;;
59876;SDS011;45749;51.140;17.184;2022-10-31T07:35:09;22.42;;;12.30;;
59876;SDS011;45749;51.140;17.184;2022-10-31T07:37:37;20.43;;;11.35;;
59876;SDS011;45749;51.140;17.184;2022-10-31T07:40:04;21.80;;;13.78;;
59876;SDS011;45749;51.140;17.184;2022-10-31T07:42:35;25.50;;;13.00;;
59876;SDS011;45749;51.140;17.184;2022-10-31T07:45:08;30.95;;;14.47;;
59876;SDS011;45749;51.140;17.184;2022-10-31T07:47:45;26.55;;;13.10;;
59876;SDS011;45749;51.140;17.184;2022-10-31T07:50:16;24.30;;;15.10;;
59876;SDS011;45749;51.140;17.184;2022-10-31T07:52:45;31.37;;;15.45;;
59876;SDS011;45749;51.140;17.184;2022-10-31T07:55:11;22.45;;;17.20;;
59876;SDS011;45749;51.140;17.184;2022-10-31T07:57:39;29.80;;;17.85;;
59876;SDS011;45749;51.140;17.184;2022-10-31T08:00:06;28.55;;;16.17;;
59876;SDS011;45749;51.140;17.184;2022-10-31T08:02:35;22.45;;;15.45;;
59876;SDS011;45749;51.140;17.184;2022-10-31T08:05:01;25.88;;;15.80;;
59876;SDS011;45749;51.140;17.184;2022-10-31T08:07:28;23.55;;;16.82;;
59876;SDS011;45749;51.140;17.184;2022-10-31T08:09:55;27.30;;;16.05;;
59876;SDS011;45749;51.140;17.184;2022-10-31T08:12:21;27.40;;;16.52;;
59876;SDS011;45749;51.140;17.184;2022-10-31T08:14:47;19.35;;;14.28;;
59876;SDS011;45749;51.140;17.184;2022-10-31T08:17:13;26.80;;;15.55;;
59876;SDS011;45749;51.140;17.184;2022-10-31T08:19:39;21.93;;;13.35;;
59876;SDS011;45749;51.140;17.184;2022-10-31T08:22:05;26.70;;;13.85;;
59876;SDS011;45749;51.140;17.184;2022-10-31T08:24:31;24.55;;;13.00;;
59876;SDS011;45749;51.140;17.184;2022-10-31T08:26:57;25.88;;;13.95;;
59876;SDS011;45749;51.140;17.184;2022-10-31T08:29:23;20.48;;;13.20;;
59876;SDS011;45749;51.140;17.184;2022-10-31T08:31:49;23.47;;;13.45;;
59876;SDS011;45749;51.140;17.184;2022-10-31T08:34:15;21.65;;;11.88;;
59876;SDS011;45749;51.140;17.184;2022-10-31T08:36:41;34.45;;;19.65;;
59876;SDS011;45749;51.140;17.184;2022-10-31T08:39:09;22.85;;;13.40;;
59876;SDS011;45749;51.140;17.184;2022-10-31T08:41:34;20.10;;;12.18;;
59876;SDS011;45749;51.140;17.184;2022-10-31T08:44:00;22.35;;;12.65;;
59876;SDS011;45749;51.140;17.184;2022-10-31T08:46:26;20.08;;;11.70;;
59876;SDS011;45749;51.140;17.184;2022-10-31T08:48:52;21.62;;;11.78;;
59876;SDS011;45749;51.140;17.184;2022-10-31T08:51:18;18.20;;;11.18;;
59876;SDS011;45749;51.140;17.184;2022-10-31T08:53:44;20.75;;;11.40;;
59876;SDS011;45749;51.140;17.184;2022-10-31T08:56:20;17.05;;;10.50;;
59876;SDS011;45749;51.140;17.184;2022-10-31T08:58:58;22.22;;;10.75;;
59876;SDS011;45749;51.140;17.184;2022-10-31T09:01:24;15.13;;;9.60;;
59876;SDS011;45749;51.140;17.184;2022-10-31T09:03:51;17.27;;;9.75;;
59876;SDS011;45749;51.140;17.184;2022-10-31T09:06:16;14.00;;;8.25;;
59876;SDS011;45749;51.140;17.184;2022-10-31T09:08:42;18.55;;;8.00;;
59876;SDS011;45749;51.140;17.184;2022-10-31T09:11:08;16.42;;;8.85;;
59876;SDS011;45749;51.140;17.184;2022-10-31T09:13:34;18.42;;;11.03;;
59876;SDS011;45749;51.140;17.184;2022-10-31T09:16:00;14.83;;;9.28;;
59876;SDS011;45749;51.140;17.184;2022-10-31T09:18:26;12.25;;;8.98;;
59876;SDS011;45749;51.140;17.184;2022-10-31T09:20:53;15.23;;;8.30;;
59876;SDS011;45749;51.140;17.184;2022-10-31T09:23:19;12.90;;;8.68;;
59876;SDS011;45749;51.140;17.184;2022-10-31T09:25:48;15.70;;;9.65;;
59876;SDS011;45749;51.140;17.184;2022-10-31T09:28:17;14.07;;;9.30;;
59876;SDS011;45749;51.140;17.184;2022-10-31T09:30:47;11.85;;;8.05;;
59876;SDS011;45749;51.140;17.184;2022-10-31T09:33:15;14.80;;;8.38;;
59876;SDS011;45749;51.140;17.184;2022-10-31T09:35:43;16.50;;;8.33;;
59876;SDS011;45749;51.140;17.184;2022-10-31T09:38:12;13.93;;;7.17;;
59876;SDS011;45749;51.140;17.184;2022-10-31T09:40:45;14.15;;;8.60;;
59876;SDS011;45749;51.140;17.184;2022-10-31T09:49:17;14.50;;;8.88;;
59876;SDS011;45749;51.140;17.184;2022-10-31T09:51:48;12.85;;;7.72;;
59876;SDS011;45749;51.140;17.184;2022-10-31T09:54:25;14.07;;;8.50;;
59876;SDS011;45749;51.140;17.184;2022-10-31T09:57:02;16.48;;;7.53;;
59876;SDS011;45749;51.140;17.184;2022-10-31T09:59:34;12.28;;;7.20;;
59876;SDS011;45749;51.140;17.184;2022-10-31T10:02:16;12.73;;;7.33;;
59876;SDS011;45749;51.140;17.184;2022-10-31T10:05:59;13.70;;;6.80;;
59876;SDS011;45749;51.140;17.184;2022-10-31T10:10:49;11.15;;;7.58;;
59876;SDS011;45749;51.140;17.184;2022-10-31T10:16:16;12.28;;;6.85;;
59876;SDS011;45749;51.140;17.184;2022-10-31T10:30:20;10.20;;;5.80;;
59876;SDS011;45749;51.140;17.184;2022-10-31T10:32:50;13.40;;;5.95;;
59876;SDS011;45749;51.140;17.184;2022-10-31T10:35:30;13.10;;;7.22;;
59876;SDS011;45749;51.140;17.184;2022-10-31T10:38:10;10.78;;;5.85;;
59876;SDS011;45749;51.140;17.184;2022-10-31T10:40:39;14.38;;;7.55;;
59876;SDS011;45749;51.140;17.184;2022-10-31T10:54:39;13.75;;;6.50;;
59876;SDS011;45749;51.140;17.184;2022-10-31T11:00:31;16.95;;;7.92;;
59876;SDS011;45749;51.140;17.184;2022-10-31T11:02:48;14.78;;;6.62;;
59876;SDS011;45749;51.140;17.184;2022-10-31T11:05:20;10.93;;;5.40;;
59876;SDS011;45749;51.140;17.184;2022-10-31T11:08:27;11.38;;;5.58;;
59876;SDS011;45749;51.140;17.184;2022-10-31T11:11:09;12.65;;;6.22;;
59876;SDS011;45749;51.140;17.184;2022-10-31T11:13:45;11.15;;;5.80;;
59876;SDS011;45749;51.140;17.184;2022-10-31T11:16:28;12.13;;;5.33;;
59876;SDS011;45749;51.140;17.184;2022-10-31T11:19:22;11.93;;;5.78;;
59876;SDS011;45749;51.140;17.184;2022-10-31T11:21:49;12.30;;;5.47;;
59876;SDS011;45749;51.140;17.184;2022-10-31T11:24:17;12.30;;;4.95;;
59876;SDS011;45749;51.140;17.184;2022-10-31T11:26:49;11.35;;;6.12;;
59876;SDS011;45749;51.140;17.184;2022-10-31T11:29:23;6.92;;;4.70;;
59876;SDS011;45749;51.140;17.184;2022-10-31T11:31:51;11.53;;;5.47;;
59876;SDS011;45749;51.140;17.184;2022-10-31T11:34:32;12.95;;;5.25;;
59876;SDS011;45749;51.140;17.184;2022-10-31T11:37:17;10.63;;;5.80;;
59876;SDS011;45749;51.140;17.184;2022-10-31T11:40:03;8.85;;;4.55;;
59876;SDS011;45749;51.140;17.184;2022-10-31T11:42:40;9.20;;;5.20;;
59876;SDS011;45749;51.140;17.184;2022-10-31T11:45:26;11.97;;;4.97;;
59876;SDS011;45749;51.140;17.184;2022-10-31T11:47:57;12.85;;;5.10;;
59876;SDS011;45749;51.140;17.184;2022-10-31T11:50:27;8.25;;;5.30;;
59876;SDS011;45749;51.140;17.184;2022-10-31T11:52:57;12.15;;;5.40;;
59876;SDS011;45749;51.140;17.184;2022-10-31T11:55:36;13.68;;;6.47;;
59876;SDS011;45749;51.140;17.184;2022-10-31T11:58:18;12.73;;;5.67;;
59876;SDS011;45749;51.140;17.184;2022-10-31T12:00:49;9.43;;;5.33;;
59876;SDS011;45749;51.140;17.184;2022-10-31T12:06:18;11.35;;;5.05;;
59876;SDS011;45749;51.140;17.184;2022-10-31T12:08:50;10.10;;;5.75;;
59876;SDS011;45749;51.140;17.184;2022-10-31T12:16:48;11.53;;;5.87;;
59876;SDS011;45749;51.140;17.184;2022-10-31T12:25:50;13.32;;;5.03;;
59876;SDS011;45749;51.140;17.184;2022-10-31T12:40:21;12.68;;;5.75;;
59876;SDS011;45749;51.140;17.184;2022-10-31T12:46:18;8.60;;;5.17;;
59876;SDS011;45749;51.140;17.184;2022-10-31T12:48:50;13.85;;;4.92;;
59876;SDS011;45749;51.140;17.184;2022-10-31T12:54:22;9.73;;;4.70;;
59876;SDS011;45749;51.140;17.184;2022-10-31T13:00:07;14.55;;;6.42;;
59876;SDS011;45749;51.140;17.184;2022-10-31T13:02:57;8.18;;;4.97;;
59876;SDS011;45749;51.140;17.184;2022-10-31T13:05:45;8.83;;;5.53;;
59876;SDS011;45749;51.140;17.184;2022-10-31T13:08:17;12.03;;;4.93;;
59876;SDS011;45749;51.140;17.184;2022-10-31T13:11:08;10.20;;;5.28;;
59876;SDS011;45749;51.140;17.184;2022-10-31T13:16:56;9.15;;;5.40;;
59876;SDS011;45749;51.140;17.184;2022-10-31T13:19:44;11.05;;;5.92;;
59876;SDS011;45749;51.140;17.184;2022-10-31T13:27:51;6.75;;;5.03;;
59876;SDS011;45749;51.140;17.184;2022-10-31T13:30:36;11.48;;;4.95;;
59876;SDS011;45749;51.140;17.184;2022-10-31T13:33:16;12.47;;;5.53;;
59876;SDS011;45749;51.140;17.184;2022-10-31T13:38:36;16.62;;;6.03;;
59876;SDS011;45749;51.140;17.184;2022-10-31T13:41:20;10.80;;;5.20;;
59876;SDS011;45749;51.140;17.184;2022-10-31T13:44:03;9.80;;;5.25;;
59876;SDS011;45749;51.140;17.184;2022-10-31T13:46:50;11.50;;;6.62;;
59876;SDS011;45749;51.140;17.184;2022-10-31T13:54:46;9.93;;;6.40;;
59876;SDS011;45749;51.140;17.184;2022-10-31T13:57:21;9.80;;;6.17;;
59876;SDS011;45749;51.140;17.184;2022-10-31T13:59:59;13.22;;;5.70;;
59876;SDS011;45749;51.140;17.184;2022-10-31T14:02:29;10.67;;;5.60;;
59876;SDS011;45749;51.140;17.184;2022-10-31T14:05:02;11.48;;;4.95;;
59876;SDS011;45749;51.140;17.184;2022-10-31T14:07:32;12.78;;;5.55;;
59876;SDS011;45749;51.140;17.184;2022-10-31T14:10:03;9.48;;;5.37;;
59876;SDS011;45749;51.140;17.184;2022-10-31T14:12:38;11.93;;;5.20;;
59876;SDS011;45749;51.140;17.184;2022-10-31T14:20:24;11.63;;;5.90;;
59876;SDS011;45749;51.140;17.184;2022-10-31T14:22:58;11.40;;;6.03;;
59876;SDS011;45749;51.140;17.184;2022-10-31T14:28:18;14.63;;;5.28;;
59876;SDS011;45749;51.140;17.184;2022-10-31T14:30:57;13.55;;;5.53;;
59876;SDS011;45749;51.140;17.184;2022-10-31T14:33:22;10.85;;;5.90;;
59876;SDS011;45749;51.140;17.184;2022-10-31T14:44:32;11.78;;;5.70;;
59876;SDS011;45749;51.140;17.184;2022-10-31T14:47:19;8.63;;;5.10;;
59876;SDS011;45749;51.140;17.184;2022-10-31T14:49:48;11.28;;;6.67;;
59876;SDS011;45749;51.140;17.184;2022-10-31T14:52:45;13.28;;;6.58;;
59876;SDS011;45749;51.140;17.184;2022-10-31T14:55:14;10.15;;;5.45;;
59876;SDS011;45749;51.140;17.184;2022-10-31T14:57:46;14.55;;;7.62;;
59876;SDS011;45749;51.140;17.184;2022-10-31T15:00:18;13.63;;;7.40;;
59876;SDS011;45749;51.140;17.184;2022-10-31T15:05:42;12.20;;;5.83;;
59876;SDS011;45749;51.140;17.184;2022-10-31T15:08:33;12.47;;;7.25;;
59876;SDS011;45749;51.140;17.184;2022-10-31T15:11:15;9.63;;;6.65;;
59876;SDS011;45749;51.140;17.184;2022-10-31T15:13:46;12.82;;;6.47;;
59876;SDS011;45749;51.140;17.184;2022-10-31T15:16:24;17.30;;;6.03;;
59876;SDS011;45749;51.140;17.184;2022-10-31T15:18:57;16.15;;;9.25;;
59876;SDS011;45749;51.140;17.184;2022-10-31T15:21:26;18.73;;;8.08;;
59876;SDS011;45749;51.140;17.184;2022-10-31T15:23:54;15.18;;;6.97;;
59876;SDS011;45749;51.140;17.184;2022-10-31T15:26:31;14.33;;;6.70;;
59876;SDS011;45749;51.140;17.184;2022-10-31T15:29:05;15.25;;;7.00;;
59876;SDS011;45749;51.140;17.184;2022-10-31T15:31:31;14.70;;;7.55;;
59876;SDS011;45749;51.140;17.184;2022-10-31T15:34:17;12.50;;;8.00;;
59876;SDS011;45749;51.140;17.184;2022-10-31T15:36:41;13.20;;;6.72;;
59876;SDS011;45749;51.140;17.184;2022-10-31T15:39:13;16.10;;;7.67;;
59876;SDS011;45749;51.140;17.184;2022-10-31T15:41:51;18.45;;;7.85;;
59876;SDS011;45749;51.140;17.184;2022-10-31T15:44:26;16.05;;;9.25;;
59876;SDS011;45749;51.140;17.184;2022-10-31T15:47:02;15.25;;;9.65;;
59876;SDS011;45749;51.140;17.184;2022-10-31T15:49:37;16.48;;;9.00;;
59876;SDS011;45749;51.140;17.184;2022-10-31T15:55:03;11.38;;;7.12;;
59876;SDS011;45749;51.140;17.184;2022-10-31T15:57:31;17.60;;;9.18;;
59876;SDS011;45749;51.140;17.184;2022-10-31T15:59:59;17.45;;;9.53;;
59876;SDS011;45749;51.140;17.184;2022-10-31T16:02:26;16.90;;;12.07;;
59876;SDS011;45749;51.140;17.184;2022-10-31T16:04:53;19.30;;;10.65;;
59876;SDS011;45749;51.140;17.184;2022-10-31T16:07:28;17.73;;;12.68;;
59876;SDS011;45749;51.140;17.184;2022-10-31T16:09:56;17.90;;;12.43;;
59876;SDS011;45749;51.140;17.184;2022-10-31T16:12:35;19.98;;;11.68;;
59876;SDS011;45749;51.140;17.184;2022-10-31T16:15:06;15.13;;;8.30;;
59876;SDS011;45749;51.140;17.184;2022-10-31T16:17:40;20.97;;;9.03;;
59876;SDS011;45749;51.140;17.184;2022-10-31T16:20:18;20.40;;;9.43;;
59876;SDS011;45749;51.140;17.184;2022-10-31T16:22:52;20.75;;;10.48;;
59876;SDS011;45749;51.140;17.184;2022-10-31T16:25:23;15.60;;;9.30;;
59876;SDS011;45749;51.140;17.184;2022-10-31T16:28:03;15.45;;;8.15;;
59876;SDS011;45749;51.140;17.184;2022-10-31T16:30:41;16.60;;;8.53;;
59876;SDS011;45749;51.140;17.184;2022-10-31T16:33:30;14.45;;;8.88;;
59876;SDS011;45749;51.140;17.184;2022-10-31T16:36:29;17.20;;;8.20;;
59876;SDS011;45749;51.140;17.184;2022-10-31T16:38:57;19.27;;;10.88;;
59876;SDS011;45749;51.140;17.184;2022-10-31T16:41:23;20.55;;;10.48;;
59876;SDS011;45749;51.140;17.184;2022-10-31T16:43:51;19.42;;;11.05;;
59876;SDS011;45749;51.140;17.184;2022-10-31T16:46:20;18.73;;;10.35;;
59876;SDS011;45749;51.140;17.184;2022-10-31T16:48:48;15.68;;;11.97;;
59876;SDS011;45749;51.140;17.184;2022-10-31T16:51:15;21.40;;;11.43;;
59876;SDS011;45749;51.140;17.184;2022-10-31T16:53:41;19.70;;;11.90;;
59876;SDS011;45749;51.140;17.184;2022-10-31T16:56:11;17.48;;;10.68;;
59876;SDS011;45749;51.140;17.184;2022-10-31T16:58:40;28.40;;;14.03;;
59876;SDS011;45749;51.140;17.184;2022-10-31T17:01:08;24.30;;;14.63;;
59876;SDS011;45749;51.140;17.184;2022-10-31T17:03:34;30.52;;;15.05;;
59876;SDS011;45749;51.140;17.184;2022-10-31T17:06:00;28.98;;;15.60;;
59876;SDS011;45749;51.140;17.184;2022-10-31T17:08:27;25.60;;;14.47;;
59876;SDS011;45749;51.140;17.184;2022-10-31T17:10:53;25.25;;;13.22;;